Time;durP1;ratioP1;P1;durP2;ratioP2;P2;SDS_P1;SDS_P2;PMS_P1;PMS_P2;Temp;Humidity;BMP_temperature;BMP_pressure;BME280_temperature;BME280_humidity;BME280_pressure;Samples;Min_cycle;Max_cycle;Signal;HPM_P1;HPM_P2
2022/02/22 00:01:20;;;;;;;;;8.75;4.50;;;;;9.69;60.33;101545.25;5097647;27;69679;-60
2022/02/22 00:03:46;;;;;;;;;11.00;5.00;;;;;9.67;60.09;101547.13;5116937;27;45329;-60
2022/02/22 00:06:11;;;;;;;;;12.25;5.25;;;;;9.65;60.07;101544.59;5117016;27;45342;-60
2022/02/22 00:08:36;;;;;;;;;4.50;4.00;;;;;9.63;60.03;101554.34;5115993;27;67739;-60
2022/02/22 00:11:02;;;;;;;;;6.75;5.25;;;;;9.62;60.40;101549.22;5117165;27;45226;-61
2022/02/22 00:13:27;;;;;;;;;10.50;6.00;;;;;9.60;60.24;101544.06;5116989;27;45493;-60
2022/02/22 00:15:53;;;;;;;;;8.75;6.00;;;;;9.60;60.33;101549.31;5116799;27;45459;-60
2022/02/22 00:18:19;;;;;;;;;9.75;5.00;;;;;9.59;60.32;101557.31;5116802;27;45272;-60
2022/02/22 00:20:45;;;;;;;;;9.00;6.00;;;;;9.58;60.42;101545.13;5116852;27;45346;-60
2022/02/22 00:23:10;;;;;;;;;12.50;5.25;;;;;9.56;60.21;101558.34;5116777;27;45603;-60
2022/02/22 00:25:35;;;;;;;;;7.25;4.75;;;;;9.55;60.48;101555.84;5116795;27;46204;-60
2022/02/22 00:28:01;;;;;;;;;16.25;4.50;;;;;9.54;60.29;101562.03;5115702;27;67669;-60
2022/02/22 00:30:26;;;;;;;;;15.00;4.00;;;;;9.54;60.57;101567.28;5116442;27;45295;-60
2022/02/22 00:32:52;;;;;;;;;11.50;6.25;;;;;9.53;60.50;101562.97;5116718;27;45329;-60
2022/02/22 00:35:17;;;;;;;;;12.00;4.75;;;;;9.49;60.50;101560.53;5117322;27;45342;-60
2022/02/22 00:37:43;;;;;;;;;7.25;4.00;;;;;9.47;60.58;101569.47;5120166;27;45248;-60
2022/02/22 00:40:09;;;;;;;;;13.50;7.00;;;;;9.45;60.55;101566.13;5118863;27;45303;-60
2022/02/22 00:42:34;;;;;;;;;8.75;5.50;;;;;9.43;60.60;101558.34;5120067;27;45359;-61
2022/02/22 00:44:59;;;;;;;;;9.25;6.00;;;;;9.42;60.58;101564.53;5118863;27;73415;-60
2022/02/22 00:47:25;;;;;;;;;9.25;5.75;;;;;9.41;60.75;101575.13;5119107;27;66614;-60
2022/02/22 00:49:51;;;;;;;;;10.50;4.25;;;;;9.39;60.62;101575.22;5120000;27;45506;-60
2022/02/22 00:52:17;;;;;;;;;12.50;4.75;;;;;9.37;60.52;101574.47;5119961;27;45337;-60
2022/02/22 00:54:42;;;;;;;;;9.75;5.75;;;;;9.35;60.96;101576.38;5119644;27;55021;-60
2022/02/22 00:57:07;;;;;;;;;8.50;6.50;;;;;9.32;60.94;101566.94;5099561;27;63887;-60
2022/02/22 00:59:33;;;;;;;;;7.00;4.25;;;;;9.30;61.14;101557.47;5120049;27;45342;-60
2022/02/22 01:01:58;;;;;;;;;15.75;7.75;;;;;9.28;61.12;101559.34;5100516;27;56599;-60
2022/02/22 01:04:24;;;;;;;;;8.25;7.00;;;;;9.26;61.26;101559.47;5119702;27;45371;-61
2022/02/22 01:06:50;;;;;;;;;13.50;6.50;;;;;9.25;61.26;101567.44;5119753;27;45319;-60
2022/02/22 01:09:15;;;;;;;;;12.00;7.25;;;;;9.20;61.51;101570.34;5119020;27;58915;-61
2022/02/22 01:11:41;;;;;;;;;15.75;6.25;;;;;9.19;61.58;101573.94;5119658;27;45513;-60
2022/02/22 01:14:06;;;;;;;;;17.25;9.25;;;;;9.17;61.38;101584.53;5119288;27;47148;-60
2022/02/22 01:16:32;;;;;;;;;11.50;5.00;;;;;9.16;61.67;101592.47;5118799;27;65585;-60
2022/02/22 01:18:57;;;;;;;;;20.00;7.50;;;;;9.12;61.61;101588.38;5118700;27;68163;-60
2022/02/22 01:21:22;;;;;;;;;11.25;6.50;;;;;9.10;61.91;101588.50;5100617;27;56158;-60
2022/02/22 01:23:48;;;;;;;;;17.75;8.00;;;;;9.09;61.92;101580.72;5119056;27;46084;-60
2022/02/22 01:26:13;;;;;;;;;13.75;10.75;;;;;9.09;61.94;101585.94;5118260;27;68652;-60
2022/02/22 01:28:38;;;;;;;;;13.75;6.75;;;;;9.06;61.89;101582.59;5119321;27;45472;-59
2022/02/22 01:31:04;;;;;;;;;13.00;7.50;;;;;9.05;62.06;101587.94;5118317;27;59431;-60
2022/02/22 01:33:29;;;;;;;;;8.50;6.25;;;;;9.02;62.39;101585.53;5119163;27;45329;-60
2022/02/22 01:35:55;;;;;;;;;12.50;6.25;;;;;9.00;62.35;101587.41;5118302;27;67807;-60
2022/02/22 01:38:20;;;;;;;;;12.00;5.25;;;;;8.98;62.59;101594.53;5118531;27;58591;-60
2022/02/22 01:40:45;;;;;;;;;14.25;6.00;;;;;8.97;62.63;101587.59;5118038;27;70427;-60
2022/02/22 01:43:11;;;;;;;;;12.25;7.25;;;;;8.96;62.54;101599.03;5118040;27;71687;-60
2022/02/22 01:45:37;;;;;;;;;11.50;6.00;;;;;8.93;62.76;101591.34;5118433;27;62278;-60
2022/02/22 01:48:03;;;;;;;;;8.00;6.25;;;;;8.93;62.82;101588.72;5117850;27;45394;-60
2022/02/22 01:50:29;;;;;;;;;13.75;5.75;;;;;8.91;62.83;101596.72;5118148;27;45619;-60
2022/02/22 01:52:54;;;;;;;;;13.75;6.75;;;;;8.90;62.84;101603.72;5100408;27;45511;-59
2022/02/22 01:55:20;;;;;;;;;13.00;7.00;;;;;8.89;62.77;101601.22;5118193;27;63992;-61
2022/02/22 01:57:45;;;;;;;;;8.25;6.00;;;;;8.87;62.79;101603.09;5100607;27;45499;-60
2022/02/22 02:00:11;;;;;;;;;14.75;3.75;;;;;8.86;63.06;101604.03;5118916;27;45239;-60
2022/02/22 02:02:37;;;;;;;;;15.25;10.00;;;;;8.84;62.86;101605.91;5118739;27;45817;-60
2022/02/22 02:05:03;;;;;;;;;14.25;7.00;;;;;8.83;62.98;101606.84;5118828;27;45358;-60
2022/02/22 02:07:28;;;;;;;;;10.75;5.75;;;;;8.80;63.31;101596.56;5118816;27;45379;-60
2022/02/22 02:09:54;;;;;;;;;14.00;8.25;;;;;8.78;63.26;101599.25;5118196;27;56302;-60
2022/02/22 02:12:19;;;;;;;;;11.75;7.00;;;;;8.78;63.26;101604.50;5117698;27;69517;-59
2022/02/22 02:14:45;;;;;;;;;10.25;6.75;;;;;8.75;63.13;101602.94;5118086;27;60084;-60
2022/02/22 02:17:10;;;;;;;;;14.75;7.50;;;;;8.74;63.36;101603.03;5117822;27;61962;-60
2022/02/22 02:19:35;;;;;;;;;12.75;7.50;;;;;8.73;63.19;101602.19;5117794;27;64408;-60
2022/02/22 02:22:01;;;;;;;;;15.00;11.50;;;;;8.71;63.48;101598.00;5117389;27;73414;-60
2022/02/22 02:24:27;;;;;;;;;11.25;5.00;;;;;8.70;63.63;101605.00;5118401;27;45304;-60
2022/02/22 02:26:53;;;;;;;;;13.25;6.00;;;;;8.70;63.63;101601.56;5118550;27;45394;-60
2022/02/22 02:29:21;;;;;;;;;15.50;6.00;;;;;8.69;63.49;101605.94;5118425;27;45396;-60
2022/02/22 02:31:47;;;;;;;;;11.00;5.00;;;;;8.69;63.57;101607.72;5117282;27;46203;-60
2022/02/22 02:34:15;;;;;;;;;10.25;7.25;;;;;8.67;63.53;101599.94;5118273;27;45268;-60
2022/02/22 02:36:40;;;;;;;;;11.75;5.75;;;;;8.66;63.48;101606.13;5117289;27;45291;-60
2022/02/22 02:39:07;;;;;;;;;14.75;6.25;;;;;8.66;63.36;101607.91;5118333;27;45484;-60
2022/02/22 02:41:32;;;;;;;;;14.75;6.25;;;;;8.64;63.72;101617.66;5118176;27;46291;-60
2022/02/22 02:44:05;;;;;;;;;12.50;9.50;;;;;8.60;63.81;101606.50;5117137;27;70032;-60
2022/02/22 02:46:31;;;;;;;;;12.75;7.00;;;;;8.58;63.80;101604.00;5118237;27;45233;-60
2022/02/22 02:48:57;;;;;;;;;13.25;6.75;;;;;8.57;64.05;101604.09;5117958;27;47484;-59
2022/02/22 02:51:22;;;;;;;;;15.25;10.00;;;;;8.54;63.86;101605.13;5117982;27;45961;-60
2022/02/22 02:53:52;;;;;;;;;9.75;5.00;;;;;8.54;63.95;101617.38;5117967;27;45378;-60
2022/02/22 02:56:22;;;;;;;;;14.50;7.00;;;;;8.54;63.94;101627.84;5117050;27;45326;-60
2022/02/22 02:58:49;;;;;;;;;11.75;5.75;;;;;8.51;63.85;101639.38;5117622;27;45413;-60
2022/02/22 03:01:14;;;;;;;;;12.50;7.00;;;;;8.50;63.92;101637.69;5117868;27;46919;-62
2022/02/22 03:03:39;;;;;;;;;10.00;5.75;;;;;8.46;64.23;101647.50;5117959;27;45484;-60
2022/02/22 03:06:05;;;;;;;;;12.00;6.00;;;;;8.45;64.17;101645.81;5117125;27;65080;-60
2022/02/22 03:08:30;;;;;;;;;15.00;9.00;;;;;8.45;64.20;101642.34;5116775;27;69108;-60
2022/02/22 03:10:56;;;;;;;;;12.00;6.50;;;;;8.43;64.35;101650.31;5117578;27;46970;-60
2022/02/22 03:13:21;;;;;;;;;10.50;6.25;;;;;8.40;64.45;101640.00;5117694;27;45346;-60
2022/02/22 03:15:47;;;;;;;;;11.50;6.50;;;;;8.39;64.55;101654.03;5116497;27;45699;-61
2022/02/22 03:18:12;;;;;;;;;8.25;5.50;;;;;8.39;64.49;101650.56;5116552;27;69353;-60
2022/02/22 03:20:38;;;;;;;;;14.25;5.75;;;;;8.39;64.50;101646.19;5116501;27;75693;-61
2022/02/22 03:23:03;;;;;;;;;12.25;5.50;;;;;8.37;64.48;101631.50;5117467;27;45230;-60
2022/02/22 03:25:28;;;;;;;;;15.00;6.25;;;;;8.35;64.65;101634.22;5116820;27;63553;-60
2022/02/22 03:27:54;;;;;;;;;9.25;5.50;;;;;8.36;64.86;101640.28;5117561;27;45434;-60
2022/02/22 03:30:20;;;;;;;;;14.50;6.75;;;;;8.33;64.72;101636.09;5117048;27;45926;-60
2022/02/22 03:32:46;;;;;;;;;15.50;8.25;;;;;8.32;64.91;101635.22;5117459;27;45276;-60
2022/02/22 03:35:11;;;;;;;;;8.75;6.25;;;;;8.32;65.01;101637.03;5099070;27;45192;-60
2022/02/22 03:37:37;;;;;;;;;11.50;8.75;;;;;8.31;64.87;101640.56;5117570;27;45207;-60
2022/02/22 03:40:02;;;;;;;;;18.75;4.75;;;;;8.31;64.95;101644.03;5117282;27;46908;-61
2022/02/22 03:42:27;;;;;;;;;10.00;4.00;;;;;8.31;64.99;101641.41;5117204;27;45440;-60
2022/02/22 03:44:53;;;;;;;;;14.75;8.00;;;;;8.30;65.05;101647.56;5116722;27;58284;-60
2022/02/22 03:47:18;;;;;;;;;15.00;10.25;;;;;8.30;64.87;101644.97;5116428;27;67753;-60
2022/02/22 03:49:44;;;;;;;;;10.25;5.25;;;;;8.29;65.05;101650.31;5116955;27;45893;-60
2022/02/22 03:52:09;;;;;;;;;11.75;9.00;;;;;8.29;64.89;101645.06;5116221;27;71758;-60
2022/02/22 03:54:34;;;;;;;;;13.00;5.00;;;;;8.29;64.73;101653.75;5117237;27;45377;-60
2022/02/22 03:57:00;;;;;;;;;10.25;7.50;;;;;8.29;64.98;101650.31;5116497;27;57534;-60
2022/02/22 03:59:25;;;;;;;;;11.50;8.50;;;;;8.30;65.10;101641.50;5116167;27;73579;-60
2022/02/22 04:01:53;;;;;;;;;10.75;6.00;;;;;8.30;65.15;101651.97;5117082;27;45427;-60
2022/02/22 04:04:19;;;;;;;;;15.50;8.25;;;;;8.31;65.15;101658.91;5117213;27;45297;-60
2022/02/22 04:06:44;;;;;;;;;20.00;8.25;;;;;8.31;65.05;101653.66;5116137;27;67815;-60
2022/02/22 04:09:09;;;;;;;;;13.00;10.00;;;;;8.30;65.24;101652.81;5115985;27;71620;-60
2022/02/22 04:11:35;;;;;;;;;14.50;7.25;;;;;8.31;65.38;101649.25;5119073;27;66643;-60
2022/02/22 04:14:00;;;;;;;;;12.75;6.00;;;;;8.34;65.22;101648.25;5119719;27;67502;-60
2022/02/22 04:16:25;;;;;;;;;12.75;6.00;;;;;8.37;65.45;101647.19;5120592;27;45377;-61
2022/02/22 04:18:51;;;;;;;;;12.50;9.00;;;;;8.37;65.28;101632.34;5119610;27;70296;-60
2022/02/22 04:21:16;;;;;;;;;16.25;6.50;;;;;8.38;65.36;101634.03;5119441;27;67797;-60
2022/02/22 04:23:41;;;;;;;;;22.25;7.50;;;;;8.41;65.30;101636.47;5119497;27;63131;-60
2022/02/22 04:26:07;;;;;;;;;15.00;7.25;;;;;8.42;65.22;101645.16;5119202;27;68747;-60
2022/02/22 04:28:32;;;;;;;;;20.50;10.50;;;;;8.44;65.42;101651.13;5119998;27;48099;-60
2022/02/22 04:30:58;;;;;;;;;17.50;8.25;;;;;8.46;65.35;101663.22;5119309;27;57551;-60
2022/02/22 04:33:23;;;;;;;;;14.75;5.50;;;;;8.46;65.20;101657.13;5120231;27;45444;-60
2022/02/22 04:35:48;;;;;;;;;17.25;9.00;;;;;8.46;65.29;101657.97;5119353;27;68370;-60
2022/02/22 04:38:15;;;;;;;;;12.75;6.25;;;;;8.51;65.16;101659.47;5119935;27;47502;-60
2022/02/22 04:40:40;;;;;;;;;16.75;9.00;;;;;8.52;65.21;101669.00;5119181;27;66966;-60
2022/02/22 04:43:06;;;;;;;;;13.25;7.00;;;;;8.51;65.24;101659.47;5120149;27;45293;-61
2022/02/22 04:45:31;;;;;;;;;11.50;7.25;;;;;8.53;65.22;101654.97;5101731;27;45476;-61
2022/02/22 04:47:57;;;;;;;;;8.75;6.25;;;;;8.53;65.21;101655.84;5118883;27;75572;-59
2022/02/22 04:50:22;;;;;;;;;10.25;6.00;;;;;8.54;65.25;101661.91;5119894;27;45444;-60
2022/02/22 04:52:48;;;;;;;;;11.25;7.00;;;;;8.57;65.21;101659.09;5120041;27;45374;-60
2022/02/22 04:55:13;;;;;;;;;13.25;8.75;;;;;8.58;65.03;101658.16;5120038;27;45327;-60
2022/02/22 04:57:39;;;;;;;;;11.75;9.75;;;;;8.60;64.91;101666.78;5118804;27;69675;-60
2022/02/22 05:00:10;;;;;;;;;16.00;8.00;;;;;8.60;64.86;101669.38;5119856;27;45460;-60
2022/02/22 05:02:35;;;;;;;;;13.00;8.75;;;;;8.61;64.90;101669.31;5119943;27;45388;-60
2022/02/22 05:05:00;;;;;;;;;13.75;8.25;;;;;8.61;64.79;101677.16;5118787;27;66760;-60
2022/02/22 05:07:26;;;;;;;;;14.50;4.75;;;;;8.64;65.00;101676.13;5118624;27;72819;-61
2022/02/22 05:09:51;;;;;;;;;12.50;7.50;;;;;8.66;65.09;101681.28;5118632;27;68826;-60
2022/02/22 05:12:16;;;;;;;;;8.25;5.25;;;;;8.66;64.86;101682.09;5118694;27;69339;-60
2022/02/22 05:14:42;;;;;;;;;17.00;9.00;;;;;8.66;64.89;101682.09;5119513;27;45501;-60
2022/02/22 05:17:07;;;;;;;;;13.25;8.25;;;;;8.66;65.00;101679.50;5118457;27;69533;-61
2022/02/22 05:19:33;;;;;;;;;22.50;6.00;;;;;8.67;64.84;101681.19;5119434;27;45164;-60
2022/02/22 05:21:58;;;;;;;;;12.50;7.00;;;;;8.68;64.79;101677.63;5119406;27;45560;-60
2022/02/22 05:24:23;;;;;;;;;12.00;7.00;;;;;8.69;64.80;101679.31;5118593;27;69482;-60
2022/02/22 05:26:49;;;;;;;;;17.75;10.50;;;;;8.71;64.72;101669.56;5118176;27;73911;-60
2022/02/22 05:29:14;;;;;;;;;12.50;9.50;;;;;8.72;64.38;101670.44;5118476;27;62601;-60
2022/02/22 05:31:40;;;;;;;;;16.00;6.00;;;;;8.72;64.54;101673.03;5118495;27;57805;-60
2022/02/22 05:34:05;;;;;;;;;18.25;7.75;;;;;8.74;64.51;101676.41;5119641;27;45290;-60
2022/02/22 05:36:31;;;;;;;;;19.25;10.25;;;;;8.74;64.42;101679.84;5119017;27;45254;-60
2022/02/22 05:38:56;;;;;;;;;13.25;6.00;;;;;8.74;64.38;101671.16;5119157;27;45302;-60
2022/02/22 05:41:21;;;;;;;;;12.25;8.50;;;;;8.74;64.33;101672.00;5099753;27;69028;-60
2022/02/22 05:43:47;;;;;;;;;12.75;8.25;;;;;8.74;64.34;101664.13;5118225;27;66510;-61
2022/02/22 05:46:13;;;;;;;;;14.75;8.00;;;;;8.76;64.47;101677.13;5118833;27;46450;-60
2022/02/22 05:48:38;;;;;;;;;15.75;7.00;;;;;8.73;64.30;101670.31;5118914;27;45346;-60
2022/02/22 05:51:04;;;;;;;;;13.25;8.00;;;;;8.75;64.75;101678.06;5117801;27;45439;-60
2022/02/22 05:53:29;;;;;;;;;18.75;7.75;;;;;8.75;64.49;101672.81;5118315;27;62041;-60
2022/02/22 05:55:55;;;;;;;;;12.75;7.75;;;;;8.75;64.58;101678.06;5118808;27;46662;-60
2022/02/22 05:58:20;;;;;;;;;14.75;6.00;;;;;8.76;64.56;101675.38;5118047;27;66714;-60
2022/02/22 06:00:45;;;;;;;;;19.50;11.00;;;;;8.76;64.33;101662.25;5118216;27;59894;-61
2022/02/22 06:03:11;;;;;;;;;18.75;13.00;;;;;8.77;64.50;101655.22;5118256;27;61836;-60
2022/02/22 06:05:36;;;;;;;;;22.00;9.50;;;;;8.76;64.67;101659.63;5117684;27;69432;-60
2022/02/22 06:08:02;;;;;;;;;15.00;10.25;;;;;8.79;64.30;101657.75;5118530;27;45427;-60
2022/02/22 06:10:28;;;;;;;;;11.25;8.00;;;;;8.80;64.19;101660.28;5118472;27;45397;-60
2022/02/22 06:12:54;;;;;;;;;13.25;9.25;;;;;8.80;64.02;101662.06;5118486;27;45466;-61
2022/02/22 06:15:19;;;;;;;;;13.50;6.75;;;;;8.80;64.18;101654.22;5118262;27;45704;-60
2022/02/22 06:17:45;;;;;;;;;12.75;7.25;;;;;8.79;64.25;101655.97;5117915;27;54169;-60
2022/02/22 06:20:11;;;;;;;;;18.00;12.00;;;;;8.80;64.37;101662.06;5118227;27;49809;-60
2022/02/22 06:22:37;;;;;;;;;16.00;11.00;;;;;8.80;64.31;101659.44;5118556;27;45556;-60
2022/02/22 06:25:04;;;;;;;;;17.50;8.00;;;;;8.83;64.07;101661.88;5118172;27;46980;-59
2022/02/22 06:27:29;;;;;;;;;16.25;7.50;;;;;8.83;64.20;101661.88;5118041;27;45896;-61
2022/02/22 06:29:54;;;;;;;;;23.25;8.00;;;;;8.83;64.14;101670.56;5117189;27;64364;-60
2022/02/22 06:32:20;;;;;;;;;15.00;8.00;;;;;8.84;63.78;101671.44;5118021;27;45290;-60
2022/02/22 06:34:45;;;;;;;;;16.50;8.75;;;;;8.82;64.03;101666.25;5117626;27;45378;-60
2022/02/22 06:37:10;;;;;;;;;18.25;8.25;;;;;8.82;63.81;101662.81;5116990;27;71123;-60
2022/02/22 06:39:37;;;;;;;;;15.00;5.25;;;;;8.82;63.84;101657.56;5117256;27;66910;-60
2022/02/22 06:42:02;;;;;;;;;9.50;6.50;;;;;8.82;63.60;101668.88;5099678;27;45435;-60
2022/02/22 06:44:28;;;;;;;;;15.00;7.00;;;;;8.83;63.74;101672.38;5117850;27;47062;-60
2022/02/22 06:46:53;;;;;;;;;11.75;6.75;;;;;8.82;63.68;101666.25;5117731;27;45406;-60
2022/02/22 06:49:18;;;;;;;;;24.00;10.50;;;;;8.86;63.74;101672.16;5117218;27;60685;-60
2022/02/22 06:51:44;;;;;;;;;15.75;12.00;;;;;8.85;63.51;101670.50;5117413;27;60336;-60
2022/02/22 06:54:09;;;;;;;;;7.75;3.00;;;;;8.86;63.39;101680.84;5117773;27;45180;-60
2022/02/22 06:56:34;;;;;;;;;14.50;7.00;;;;;8.86;63.48;101675.63;5116827;27;68327;-60
2022/02/22 06:59:00;;;;;;;;;17.75;7.25;;;;;8.86;63.45;101677.41;5117113;27;60010;-60
2022/02/22 07:01:25;;;;;;;;;14.75;8.25;;;;;8.86;63.33;101686.09;5117054;27;60972;-60
2022/02/22 07:03:51;;;;;;;;;17.25;11.75;;;;;8.83;63.18;101675.81;5116220;27;45239;-60
2022/02/22 07:06:16;;;;;;;;;16.00;8.25;;;;;8.81;63.28;101674.25;5116475;27;71627;-60
2022/02/22 07:08:41;;;;;;;;;27.00;20.00;;;;;8.80;63.27;101669.94;5117521;27;45369;-60
2022/02/22 07:11:07;;;;;;;;;17.75;10.00;;;;;8.79;63.22;101683.97;5117676;27;45325;-60
2022/02/22 07:13:32;;;;;;;;;15.25;6.25;;;;;8.78;63.10;101682.28;5116429;27;73991;-60
2022/02/22 07:15:57;;;;;;;;;12.00;7.25;;;;;8.75;63.18;101681.53;5117688;27;45591;-60
2022/02/22 07:18:23;;;;;;;;;13.75;9.50;;;;;8.73;63.39;101680.78;5116681;27;63893;-60
2022/02/22 07:20:48;;;;;;;;;16.00;7.00;;;;;8.74;63.22;101681.66;5116766;27;61698;-61
2022/02/22 07:23:14;;;;;;;;;15.00;7.75;;;;;8.72;63.33;101681.72;5116655;27;67449;-60
2022/02/22 07:25:39;;;;;;;;;16.75;7.25;;;;;8.71;63.50;101677.44;5117548;27;45307;-60
2022/02/22 07:28:04;;;;;;;;;15.00;6.00;;;;;8.70;63.23;101678.38;5117557;27;45840;-61
2022/02/22 07:30:30;;;;;;;;;14.75;5.75;;;;;8.68;63.52;101677.63;5098539;27;45286;-60
2022/02/22 07:33:00;;;;;;;;;10.00;7.25;;;;;8.69;63.40;101676.69;5116615;27;65194;-60
2022/02/22 07:35:25;;;;;;;;;12.75;6.50;;;;;8.67;63.42;101675.94;5116708;27;45917;-59
2022/02/22 07:37:50;;;;;;;;;36.75;24.50;;;;;8.68;63.67;101690.72;5117332;27;45408;-60
2022/02/22 07:40:17;;;;;;;;;16.75;12.75;;;;;8.68;63.62;101679.41;5117297;27;45412;-60
2022/02/22 07:42:43;;;;;;;;;13.75;6.25;;;;;8.70;63.62;101677.53;5117110;27;45443;-60
2022/02/22 07:45:09;;;;;;;;;15.00;7.75;;;;;8.70;63.51;101680.97;5118292;27;69453;-60
2022/02/22 07:47:34;;;;;;;;;7.75;6.25;;;;;8.70;63.55;101683.59;5120829;27;45313;-60
2022/02/22 07:49:59;;;;;;;;;16.75;8.25;;;;;8.71;63.74;101681.84;5120564;27;45470;-60
2022/02/22 07:52:28;;;;;;;;;15.00;7.00;;;;;8.71;63.67;101680.06;5119416;27;74986;-60
2022/02/22 07:54:53;;;;;;;;;15.00;6.00;;;;;8.72;63.59;101684.34;5120347;27;45262;-60
2022/02/22 07:57:19;;;;;;;;;13.75;6.00;;;;;8.74;63.50;101685.09;5120640;27;45512;-60
2022/02/22 07:59:44;;;;;;;;;12.50;6.00;;;;;8.74;63.65;101679.84;5120758;27;45246;-59
2022/02/22 08:02:10;;;;;;;;;8.00;3.00;;;;;8.76;63.72;101675.38;5119922;27;60670;-60
2022/02/22 08:04:35;;;;;;;;;11.50;5.00;;;;;8.79;63.80;101679.56;5119594;27;67384;-59
2022/02/22 08:07:00;;;;;;;;;12.50;6.75;;;;;8.82;63.69;101681.16;5118959;27;63842;-60
2022/02/22 08:09:26;;;;;;;;;19.75;8.00;;;;;8.86;63.21;101670.38;5120124;27;45479;-60
2022/02/22 08:11:51;;;;;;;;;15.50;7.50;;;;;8.87;63.30;101681.72;5119343;27;72206;-60
2022/02/22 08:14:17;;;;;;;;;12.25;5.75;;;;;8.88;63.32;101667.69;5120514;27;45270;-60
2022/02/22 08:16:42;;;;;;;;;15.00;7.25;;;;;8.90;63.38;101663.19;5120280;27;46762;-60
2022/02/22 08:19:08;;;;;;;;;12.75;8.00;;;;;8.92;63.48;101666.53;5120613;27;45554;-60
2022/02/22 08:21:33;;;;;;;;;13.75;9.25;;;;;8.99;63.60;101669.59;5119329;27;70794;-60
2022/02/22 08:23:58;;;;;;;;;14.00;8.00;;;;;9.06;63.23;101668.28;5119436;27;45444;-59
2022/02/22 08:26:24;;;;;;;;;11.25;7.50;;;;;9.11;63.37;101665.34;5120317;27;45366;-60
2022/02/22 08:28:49;;;;;;;;;12.50;8.00;;;;;9.17;63.41;101664.97;5120441;27;45507;-59
2022/02/22 08:31:15;;;;;;;;;9.75;4.00;;;;;9.23;63.26;101675.06;5119683;27;45488;-59
2022/02/22 08:33:40;;;;;;;;;22.50;10.25;;;;;9.26;63.59;101682.72;5119204;27;61298;-60
2022/02/22 08:36:06;;;;;;;;;11.25;6.00;;;;;9.30;63.47;101668.47;5119759;27;45450;-60
2022/02/22 08:38:32;;;;;;;;;13.50;8.00;;;;;9.33;63.51;101662.19;5101648;27;45660;-60
2022/02/22 08:40:57;;;;;;;;;13.50;7.50;;;;;9.35;63.77;101670.78;5119940;27;45283;-61
2022/02/22 08:43:23;;;;;;;;;17.25;9.00;;;;;9.37;63.70;101670.69;5108538;27;70824;-60
2022/02/22 08:45:48;;;;;;;;;15.25;8.75;;;;;9.40;63.83;101660.00;5069363;27;45455;-59
2022/02/22 08:48:14;;;;;;;;;12.00;8.75;;;;;9.43;63.73;101663.25;5098847;27;50415;-60
2022/02/22 08:50:39;;;;;;;;;15.50;8.50;;;;;9.47;63.33;101656.88;5080386;27;51318;-60
2022/02/22 08:53:05;;;;;;;;;17.00;8.50;;;;;9.47;63.81;101654.25;5080897;27;45272;-61
2022/02/22 08:55:30;;;;;;;;;13.75;7.00;;;;;9.45;63.66;101636.94;5108663;27;45576;-59
2022/02/22 08:57:58;;;;;;;;;14.50;9.75;;;;;9.50;63.43;101645.34;5119578;27;45314;-60
2022/02/22 09:00:23;;;;;;;;;19.50;7.75;;;;;9.52;63.50;101648.72;5119644;27;46239;-60
2022/02/22 09:02:53;;;;;;;;;12.00;7.25;;;;;9.53;63.49;101658.28;5101377;27;45319;-60
2022/02/22 09:05:18;;;;;;;;;25.25;15.00;;;;;9.53;63.72;101646.91;5119766;27;45306;-60
2022/02/22 09:07:45;;;;;;;;;19.00;10.50;;;;;9.56;63.70;101651.97;5119439;27;45434;-61
2022/02/22 09:10:12;;;;;;;;;18.25;11.00;;;;;9.56;63.83;101647.53;5119299;27;45313;-60
2022/02/22 09:12:38;;;;;;;;;15.25;9.25;;;;;9.56;63.74;101647.53;5119371;27;45501;-60
2022/02/22 09:15:03;;;;;;;;;17.50;12.25;;;;;9.56;63.76;101647.53;5119392;27;45400;-60
2022/02/22 09:17:29;;;;;;;;;15.50;8.00;;;;;9.59;63.86;101639.47;5119373;27;45398;-60
2022/02/22 09:19:54;;;;;;;;;17.75;11.75;;;;;9.59;63.91;101634.22;5119142;27;46139;-60
2022/02/22 09:22:19;;;;;;;;;14.25;7.25;;;;;9.63;64.05;101635.69;5119447;27;45425;-60
2022/02/22 09:24:45;;;;;;;;;13.50;8.75;;;;;9.65;63.95;101633.81;5118345;27;68205;-60
2022/02/22 09:27:10;;;;;;;;;14.00;8.25;;;;;9.66;64.17;101634.66;5119353;27;45631;-60
2022/02/22 09:29:36;;;;;;;;;15.75;9.50;;;;;9.69;64.46;101644.09;5118804;27;46044;-60
2022/02/22 09:32:01;;;;;;;;;13.25;10.50;;;;;9.67;64.75;101644.22;5118588;27;54479;-60
2022/02/22 09:34:27;;;;;;;;;16.50;9.00;;;;;9.67;65.29;101640.75;5119101;27;45293;-60
2022/02/22 09:36:52;;;;;;;;;19.25;11.75;;;;;9.68;65.38;101639.81;5119287;27;45454;-60
2022/02/22 09:39:17;;;;;;;;;16.00;9.00;;;;;9.65;65.76;101625.94;5114464;27;66713;-60
2022/02/22 09:41:43;;;;;;;;;17.00;12.25;;;;;9.64;66.04;101640.00;5117959;27;68959;-59
2022/02/22 09:44:08;;;;;;;;;16.25;8.00;;;;;9.65;65.96;101635.63;5118788;27;49359;-60
2022/02/22 09:46:35;;;;;;;;;14.25;9.75;;;;;9.65;65.82;101625.94;5118121;27;61422;-60
2022/02/22 09:49:00;;;;;;;;;14.50;8.50;;;;;9.65;66.22;101618.06;5118511;27;46080;-60
2022/02/22 09:51:26;;;;;;;;;14.50;7.00;;;;;9.68;65.91;101621.44;5116771;27;69309;-60
2022/02/22 09:53:51;;;;;;;;;14.25;7.00;;;;;9.68;65.95;101618.81;5118925;27;45228;-60
2022/02/22 09:56:21;;;;;;;;;12.25;7.50;;;;;9.68;65.94;101608.31;5118598;27;45481;-60
2022/02/22 09:58:46;;;;;;;;;20.75;12.25;;;;;9.72;65.94;101609.78;5083527;27;47891;-60
2022/02/22 10:01:11;;;;;;;;;8.50;6.75;;;;;9.73;66.13;101588.69;5117749;27;45586;-60
2022/02/22 10:03:37;;;;;;;;;14.75;10.00;;;;;9.75;66.11;101585.97;5115939;27;66571;-60
2022/02/22 10:06:03;;;;;;;;;15.50;11.75;;;;;9.78;66.15;101572.63;5098335;27;45442;-60
2022/02/22 10:08:30;;;;;;;;;14.25;10.75;;;;;9.80;66.03;101583.88;5113073;27;45962;-60
2022/02/22 10:11:06;;;;;;;;;13.50;9.75;;;;;9.84;66.36;101573.97;5117874;27;45810;-60
2022/02/22 10:13:32;;;;;;;;;11.25;9.00;;;;;9.87;66.25;101577.25;5118612;27;45330;-60
2022/02/22 10:16:00;;;;;;;;;15.50;9.25;;;;;9.90;66.36;101577.03;5118559;27;45407;-60
2022/02/22 10:18:25;;;;;;;;;20.25;13.00;;;;;9.92;66.07;101569.03;5118491;27;46280;-60
2022/02/22 10:20:51;;;;;;;;;15.50;9.50;;;;;9.95;66.11;101555.72;5118145;27;45349;-60
2022/02/22 10:23:29;;;;;;;;;18.75;9.25;;;;;9.99;66.41;101565.06;5099990;27;45507;-60
2022/02/22 10:25:56;;;;;;;;;21.00;10.25;;;;;10.02;66.08;101553.50;5118337;27;45228;-60
2022/02/22 10:28:21;;;;;;;;;14.00;9.00;;;;;10.07;66.16;101561.88;5118148;27;46079;-61
2022/02/22 10:30:50;;;;;;;;;15.00;9.50;;;;;10.10;66.21;101561.66;5117468;27;45365;-60
2022/02/22 10:33:18;;;;;;;;;19.00;8.25;;;;;10.13;66.19;101577.22;5117939;27;45554;-61
2022/02/22 10:35:56;;;;;;;;;19.00;10.25;;;;;10.16;65.99;101589.31;5117312;27;45488;-60
2022/02/22 10:38:28;;;;;;;;;18.00;9.50;;;;;10.21;66.32;101598.53;5117856;27;45574;-60
2022/02/22 10:40:54;;;;;;;;;13.25;8.25;;;;;10.24;66.28;101606.19;5117075;27;45914;-60
2022/02/22 10:43:27;;;;;;;;;15.67;11.00;;;;;10.28;66.23;101616.47;5117877;27;45277;-60
2022/02/22 10:45:54;;;;;;;;;14.50;9.25;;;;;10.34;66.29;101626.56;5117914;27;45568;-60
2022/02/22 10:48:32;;;;;;;;;7.25;6.50;;;;;10.38;66.16;101623.59;5118010;27;45241;-60
2022/02/22 10:50:58;;;;;;;;;11.25;8.00;;;;;10.44;66.15;101624.16;5117672;27;45368;-60
2022/02/22 10:53:37;;;;;;;;;15.75;9.00;;;;;10.47;66.05;101630.06;5113736;27;45477;-60
2022/02/22 10:56:04;;;;;;;;;10.75;6.75;;;;;10.51;66.00;101617.53;5096075;27;45590;-60
2022/02/22 10:58:31;;;;;;;;;7.25;7.25;;;;;10.55;65.97;101603.22;5094099;27;45903;-60
2022/02/22 11:00:56;;;;;;;;;5.00;4.00;;;;;10.58;65.80;101589.84;5078591;27;45797;-61
2022/02/22 11:03:21;;;;;;;;;8.50;6.25;;;;;10.62;65.79;101588.69;5096823;27;47260;-61
2022/02/22 11:05:48;;;;;;;;;10.00;5.50;;;;;10.65;65.86;101593.72;5097093;27;45484;-60
2022/02/22 11:08:14;;;;;;;;;9.00;5.00;;;;;10.68;65.55;101598.78;5096867;27;45400;-60
2022/02/22 11:10:45;;;;;;;;;8.00;6.00;;;;;10.69;65.82;101599.59;5096250;27;45416;-61
2022/02/22 11:13:10;;;;;;;;;8.50;6.50;;;;;10.72;65.54;101596.75;5061786;27;45402;-60
2022/02/22 11:15:37;;;;;;;;;6.00;6.00;;;;;10.74;65.59;101592.22;5060995;27;62212;-60
2022/02/22 11:18:14;;;;;;;;;16.00;4.25;;;;;10.76;65.82;101578.97;5096680;27;46359;-60